Time;durP1;ratioP1;P1;durP2;ratioP2;P2;SDS_P1;SDS_P2;PMS_P1;PMS_P2;Temp;Humidity;BMP_temperature;BMP_pressure;BME280_temperature;BME280_humidity;BME280_pressure;Samples;Min_cycle;Max_cycle;Signal;HPM_P1;HPM_P2
2022/12/28 00:00:23;;;;;;;8.45;2.78;;;;;;;6.44;100.00;101366.78;5006144;28;20038;-84
2022/12/28 00:02:49;;;;;;;12.40;3.33;;;;;;;6.48;100.00;101370.22;4969590;28;20042;-83
2022/12/28 00:05:16;;;;;;;6.68;2.53;;;;;;;6.40;100.00;101376.09;4951848;28;20038;-84
2022/12/28 00:07:42;;;;;;;9.25;2.83;;;;;;;6.27;100.00;101366.84;4987947;28;20501;-83
2022/12/28 00:10:08;;;;;;;5.35;2.20;;;;;;;6.34;100.00;101370.97;4983137;28;20622;-84
2022/12/28 00:12:37;;;;;;;13.25;2.92;;;;;;;6.25;100.00;101356.91;5003485;28;20125;-83
2022/12/28 00:15:02;;;;;;;6.03;2.92;;;;;;;6.15;100.00;101342.06;4972707;28;20537;-83
2022/12/28 00:17:28;;;;;;;7.00;2.50;;;;;;;6.17;100.00;101344.69;4987662;28;20038;-84
2022/12/28 00:19:53;;;;;;;14.32;3.47;;;;;;;6.12;100.00;101334.06;4986970;28;20038;-83
2022/12/28 00:22:19;;;;;;;6.97;3.53;;;;;;;6.14;100.00;101339.41;4984456;28;20047;-83
2022/12/28 00:24:44;;;;;;;9.27;2.58;;;;;;;6.15;100.00;101330.28;4971116;28;20761;-83
2022/12/28 00:27:09;;;;;;;10.70;3.55;;;;;;;6.14;100.00;101320.38;4954136;28;20382;-83
2022/12/28 00:29:36;;;;;;;12.88;3.30;;;;;;;6.21;100.00;101321.81;4997743;28;20049;-84
2022/12/28 00:32:02;;;;;;;8.82;2.95;;;;;;;6.15;100.00;101300.38;5000979;28;20085;-82
2022/12/28 00:34:31;;;;;;;11.73;3.70;;;;;;;6.33;100.00;101320.25;4979910;28;20041;-84
2022/12/28 00:36:56;;;;;;;13.80;3.10;;;;;;;6.30;100.00;101301.41;5001241;28;20516;-82
2022/12/28 00:39:22;;;;;;;8.98;3.17;;;;;;;6.14;100.00;101260.56;4969139;28;20022;-82
2022/12/28 00:41:47;;;;;;;9.60;3.60;;;;;;;6.34;100.00;101292.97;4996311;28;20069;-83
2022/12/28 00:44:14;;;;;;;17.77;3.90;;;;;;;6.24;100.00;101273.56;5003050;28;20525;-84
2022/12/28 00:46:40;;;;;;;9.25;3.17;;;;;;;6.37;100.00;101279.22;4987583;28;20520;-83
2022/12/28 00:49:05;;;;;;;13.52;3.78;;;;;;;6.36;100.00;101274.75;4979450;28;20046;-83
2022/12/28 00:51:31;;;;;;;13.07;3.17;;;;;;;6.34;100.00;101276.66;4990317;28;20041;-84
2022/12/28 00:53:56;;;;;;;10.82;3.13;;;;;;;6.30;100.00;101249.75;4989050;28;20042;-83
2022/12/28 00:56:23;;;;;;;11.55;3.33;;;;;;;6.37;100.00;101245.72;5005267;28;20038;-85
2022/12/28 00:58:49;;;;;;;7.03;3.03;;;;;;;6.39;100.00;101246.50;4991593;28;20092;-83
2022/12/28 01:01:17;;;;;;;12.38;4.22;;;;;;;6.46;100.00;101242.50;4992813;28;20042;-83
2022/12/28 01:03:42;;;;;;;7.35;2.80;;;;;;;6.38;100.00;101229.31;5009223;28;20026;-84
2022/12/28 01:06:10;;;;;;;9.93;3.40;;;;;;;6.54;100.00;101261.09;4991552;28;20505;-84
2022/12/28 01:08:36;;;;;;;12.57;3.55;;;;;;;6.56;100.00;101249.19;4985150;28;20031;-83
2022/12/28 01:11:07;;;;;;;11.95;3.22;;;;;;;6.37;100.00;101226.69;4972825;28;20045;-83
2022/12/28 01:13:32;;;;;;;7.53;3.55;;;;;;;6.54;100.00;101247.50;5006170;28;20046;-83
2022/12/28 01:15:58;;;;;;;7.22;2.88;;;;;;;6.34;100.00;101208.69;4980436;28;20069;-83
2022/12/28 01:18:23;;;;;;;9.07;3.40;;;;;;;6.47;100.00;101235.22;5002148;28;20050;-83
2022/12/28 01:20:49;;;;;;;7.72;3.15;;;;;;;6.49;100.00;101201.50;5004165;28;20023;-84
2022/12/28 01:23:14;;;;;;;8.20;2.78;;;;;;;6.65;100.00;101231.44;4990308;28;20089;-83
2022/12/28 01:25:40;;;;;;;10.98;3.08;;;;;;;6.63;100.00;101223.38;4979204;28;20038;-84
2022/12/28 01:28:05;;;;;;;9.20;3.08;;;;;;;6.72;100.00;101235.59;4967985;28;20042;-84
2022/12/28 01:30:32;;;;;;;13.15;4.00;;;;;;;6.54;100.00;101207.59;4989914;28;20035;-83
2022/12/28 01:32:58;;;;;;;14.40;3.15;;;;;;;6.66;100.00;101219.59;4987319;28;20058;-84
2022/12/28 01:35:24;;;;;;;14.20;3.58;;;;;;;6.74;100.00;101222.75;5007623;28;20509;-84
2022/12/28 01:37:49;;;;;;;7.30;2.35;;;;;;;6.76;100.00;101212.66;5007532;28;20034;-83
2022/12/28 01:40:15;;;;;;;11.70;3.20;;;;;;;6.96;100.00;101235.13;4960555;28;20035;-85
2022/12/28 01:42:40;;;;;;;9.13;2.88;;;;;;;6.80;100.00;101205.19;4990158;28;20038;-84
2022/12/28 01:45:23;;;;;;;7.18;2.60;;;;;;;6.91;100.00;101215.47;4990476;28;20054;-83
2022/12/28 01:47:52;;;;;;;9.30;3.22;;;;;;;6.91;100.00;101210.03;4990742;28;20046;-83
2022/12/28 01:50:23;;;;;;;8.10;2.75;;;;;;;6.87;100.00;101189.38;5021978;28;20054;-84
2022/12/28 01:53:01;;;;;;;8.23;2.65;;;;;;;7.04;100.00;101215.63;4991697;28;20030;-83
2022/12/28 01:55:33;;;;;;;5.05;2.60;;;;;;;7.04;100.00;101193.84;4991736;28;20030;-83
2022/12/28 01:58:04;;;;;;;6.70;2.80;;;;;;;7.12;100.00;101188.84;5009007;28;20492;-84
2022/12/28 02:00:30;;;;;;;4.85;2.50;;;;;;;7.11;100.00;101182.50;4988173;28;20030;-84
2022/12/28 02:03:01;;;;;;;8.13;2.65;;;;;;;7.18;100.00;101183.00;5004624;28;20045;-82
2022/12/28 02:05:35;;;;;;;6.95;2.83;;;;;;;7.14;100.00;101176.88;4999378;28;20048;-84
2022/12/28 02:08:08;;;;;;;11.65;3.15;;;;;;;7.14;100.00;101174.16;5006049;28;20031;-83
2022/12/28 02:10:36;;;;;;;8.93;2.97;;;;;;;7.19;100.00;101143.91;4981389;28;20413;-84
2022/12/28 02:13:03;;;;;;;20.17;3.20;;;;;;;7.21;100.00;101152.00;4987994;28;20038;-84
2022/12/28 02:15:29;;;;;;;5.57;2.67;;;;;;;7.10;100.00;101134.47;4991769;28;20545;-83
2022/12/28 02:17:56;;;;;;;3.30;2.47;;;;;;;7.31;100.00;101140.47;4989396;28;20022;-84
2022/12/28 02:20:28;;;;;;;4.30;2.42;;;;;;;7.23;100.00;101128.25;5009217;28;20036;-85
2022/12/28 02:23:06;;;;;;;6.55;2.25;;;;;;;7.31;100.00;101145.91;4990686;28;20026;-84
2022/12/28 02:26:10;;;;;;;4.53;2.70;;;;;;;7.31;100.00;101124.13;5002539;28;20030;-85
2022/12/28 02:29:00;;;;;;;9.68;2.20;;;;;;;7.43;100.00;101122.50;5008403;28;20034;-84
2022/12/28 02:31:49;;;;;;;8.38;2.47;;;;;;;7.41;100.00;101127.16;4991700;28;20034;-83
2022/12/28 02:34:31;;;;;;;7.07;2.30;;;;;;;7.44;100.00;101102.44;4988563;28;20417;-83
2022/12/28 02:37:27;;;;;;;5.97;2.50;;;;;;;7.45;100.00;101106.91;5005312;28;20088;-84
2022/12/28 02:40:01;;;;;;;5.22;2.58;;;;;;;7.46;100.00;101097.78;5003071;28;20050;-84
2022/12/28 02:42:31;;;;;;;6.13;2.40;;;;;;;7.49;100.00;101089.44;5001231;28;20049;-82
2022/12/28 02:50:41;;;;;;;12.23;3.40;;;;;;;7.61;100.00;101070.53;5005158;28;20050;-83
2022/12/28 02:53:33;;;;;;;11.90;2.65;;;;;;;7.60;100.00;101066.94;5007418;28;20031;-84
2022/12/28 02:56:16;;;;;;;4.63;2.92;;;;;;;7.66;100.00;101055.66;4996377;28;20122;-83
2022/12/28 02:58:56;;;;;;;;;;;;;;;7.66;100.00;101054.78;4984937;28;20106;-83
2022/12/28 03:01:52;;;;;;;10.82;2.72;;;;;;;7.62;100.00;101045.03;5004672;28;19948;-83
2022/12/28 03:04:23;;;;;;;6.93;3.05;;;;;;;7.62;100.00;101042.31;5003728;28;20035;-84
2022/12/28 03:09:54;;;;;;;8.40;3.30;;;;;;;7.72;100.00;101051.63;5006447;28;20042;-83
2022/12/28 03:12:31;;;;;;;7.47;2.80;;;;;;;7.66;100.00;101043.88;4991919;28;20034;-84
2022/12/28 03:15:07;;;;;;;15.93;3.13;;;;;;;7.58;100.00;101041.63;4991130;28;20031;-84
2022/12/28 03:31:32;;;;;;;4.53;2.72;;;;;;;7.63;100.00;101012.25;5012334;28;20117;-84
2022/12/28 03:34:08;;;;;;;9.57;2.95;;;;;;;7.67;100.00;101018.38;4980914;28;20041;-83
2022/12/28 03:37:16;;;;;;;9.48;3.30;;;;;;;7.64;100.00;101013.09;4976646;28;20041;-84
2022/12/28 03:40:20;;;;;;;10.02;3.67;;;;;;;7.66;100.00;101011.19;5002928;28;20046;-85
2022/12/28 03:45:47;;;;;;;4.75;2.83;;;;;;;7.60;100.00;101000.66;5007246;28;20045;-84
2022/12/28 03:48:16;;;;;;;5.20;2.72;;;;;;;7.54;100.00;100996.47;5009742;28;20046;-83
2022/12/28 03:50:46;;;;;;;6.15;2.85;;;;;;;7.49;100.00;100996.78;4991046;28;20034;-83
2022/12/28 03:53:14;;;;;;;17.05;3.30;;;;;;;7.44;100.00;100987.16;5007856;28;20030;-84
2022/12/28 03:55:39;;;;;;;7.88;3.75;;;;;;;7.39;100.00;100984.72;4986299;28;20030;-83
2022/12/28 03:58:05;;;;;;;8.25;4.03;;;;;;;7.41;100.00;100987.34;5003632;28;20040;-83
2022/12/28 04:00:32;;;;;;;9.77;3.70;;;;;;;7.36;100.00;100980.34;4987871;28;20053;-84
2022/12/28 04:02:57;;;;;;;12.60;4.07;;;;;;;7.32;100.00;100975.19;4979547;28;20022;-84
2022/12/28 04:05:23;;;;;;;11.05;3.67;;;;;;;7.40;100.00;100999.22;5002473;28;20102;-83
2022/12/28 04:07:48;;;;;;;9.23;3.85;;;;;;;7.47;100.00;100995.13;5004050;28;20136;-83
2022/12/28 04:10:15;;;;;;;4.95;3.22;;;;;;;7.41;100.00;100984.63;4972527;28;20026;-83
2022/12/28 04:12:41;;;;;;;14.63;5.65;;;;;;;7.41;100.00;100969.16;4989131;28;20030;-82
2022/12/28 04:15:07;;;;;;;9.30;4.40;;;;;;;7.43;100.00;100986.28;4972934;28;20062;-84
2022/12/28 04:17:32;;;;;;;18.88;4.40;;;;;;;7.29;100.00;100953.59;4987489;28;20038;-83
2022/12/28 04:19:58;;;;;;;7.43;4.28;;;;;;;7.35;100.00;100955.94;4989752;28;20080;-83
2022/12/28 04:22:23;;;;;;;8.90;4.70;;;;;;;7.39;100.00;100953.88;4996570;28;20424;-83
2022/12/28 04:24:48;;;;;;;7.78;4.30;;;;;;;7.43;100.00;100955.41;4988691;28;20049;-83
2022/12/28 04:27:14;;;;;;;10.98;4.78;;;;;;;7.40;100.00;100955.66;4986051;28;20038;-83
2022/12/28 04:29:42;;;;;;;12.05;5.85;;;;;;;7.53;100.00;100965.63;4996562;28;20040;-83
2022/12/28 04:32:08;;;;;;;13.95;4.85;;;;;;;7.53;100.00;100970.22;4976304;28;20054;-83
2022/12/28 04:34:33;;;;;;;9.43;4.63;;;;;;;7.47;100.00;100957.00;5000777;28;20053;-82
2022/12/28 04:36:58;;;;;;;12.77;4.90;;;;;;;7.62;100.00;100960.56;4971848;28;20126;-85
2022/12/28 04:39:24;;;;;;;13.57;5.20;;;;;;;7.66;100.00;100963.00;5003458;28;20077;-84
2022/12/28 04:41:49;;;;;;;9.02;5.20;;;;;;;7.69;100.00;100959.19;4970702;28;20126;-84
2022/12/28 04:44:15;;;;;;;6.75;4.28;;;;;;;7.67;100.00;100963.84;4954433;28;20053;-84
2022/12/28 04:46:40;;;;;;;11.13;4.18;;;;;;;7.73;100.00;100968.91;5004523;28;20061;-84
2022/12/28 04:49:06;;;;;;;18.95;4.97;;;;;;;7.70;100.00;100958.22;4985422;28;20069;-83
2022/12/28 04:51:31;;;;;;;13.18;4.85;;;;;;;7.71;100.00;100955.38;4989927;28;20042;-84
2022/12/28 04:53:57;;;;;;;15.63;5.38;;;;;;;7.82;100.00;100956.53;4989930;28;20060;-83
2022/12/28 04:56:25;;;;;;;8.95;3.63;;;;;;;7.76;100.00;100965.13;4984685;28;20031;-83
2022/12/28 04:58:56;;;;;;;11.00;4.25;;;;;;;7.79;100.00;100956.72;5003623;28;20026;-83
2022/12/28 05:01:22;;;;;;;10.52;4.93;;;;;;;7.67;100.00;100942.97;4985835;28;20030;-84
2022/12/28 05:03:48;;;;;;;18.75;4.45;;;;;;;7.59;100.00;100933.50;4987592;28;20038;-83
2022/12/28 05:06:16;;;;;;;13.30;4.38;;;;;;;7.68;100.00;100943.81;5000308;28;20391;-81
2022/12/28 05:08:43;;;;;;;10.07;5.30;;;;;;;7.68;100.00;100950.13;4986469;28;20031;-82
2022/12/28 05:11:17;;;;;;;11.52;5.35;;;;;;;7.66;100.00;100948.50;4982888;28;20039;-83
2022/12/28 05:13:43;;;;;;;9.10;4.88;;;;;;;7.71;100.00;100952.66;4995469;28;20045;-82
2022/12/28 05:16:12;;;;;;;8.68;4.43;;;;;;;7.61;100.00;100928.81;5002828;28;20038;-82
2022/12/28 05:18:37;;;;;;;22.95;5.80;;;;;;;7.67;100.00;100956.59;5004211;28;20038;-83
2022/12/28 05:21:06;;;;;;;16.42;6.63;;;;;;;7.74;100.00;100954.31;5006935;28;20042;-82
2022/12/28 05:23:34;;;;;;;10.75;5.53;;;;;;;7.65;100.00;100933.97;5004009;28;20113;-82
2022/12/28 05:25:59;;;;;;;15.82;6.45;;;;;;;7.63;100.00;100933.22;5001470;28;20034;-84
2022/12/28 05:28:25;;;;;;;17.73;5.05;;;;;;;7.66;100.00;100940.34;4970346;28;20390;-83
2022/12/28 05:30:51;;;;;;;9.18;4.80;;;;;;;7.62;100.00;100926.00;5002222;28;20045;-84
2022/12/28 05:33:18;;;;;;;11.32;5.88;;;;;;;7.69;100.00;100949.16;4986969;28;20039;-82
2022/12/28 05:35:43;;;;;;;9.77;5.28;;;;;;;7.76;100.00;100946.06;4989029;28;20037;-84
2022/12/28 05:38:10;;;;;;;20.08;6.00;;;;;;;7.74;100.00;100940.69;4998829;28;20120;-83
2022/12/28 05:40:35;;;;;;;5.93;3.92;;;;;;;7.78;100.00;100938.63;4959239;28;20046;-83
2022/12/28 05:43:01;;;;;;;14.10;5.95;;;;;;;7.79;100.00;100938.53;4988480;28;20502;-82
2022/12/28 05:45:26;;;;;;;17.17;5.18;;;;;;;7.62;100.00;100922.41;4999649;28;20038;-81
2022/12/28 05:47:53;;;;;;;7.40;4.82;;;;;;;7.83;100.00;100933.75;5003452;28;20034;-83
2022/12/28 05:50:19;;;;;;;10.20;5.57;;;;;;;7.89;100.00;100947.84;5004669;28;20057;-82
2022/12/28 05:52:45;;;;;;;17.52;5.03;;;;;;;7.87;100.00;100948.91;5004112;28;20026;-82
2022/12/28 05:55:10;;;;;;;14.73;5.43;;;;;;;7.87;100.00;100938.91;4991983;28;20025;-83
2022/12/28 05:57:36;;;;;;;14.05;5.10;;;;;;;7.82;100.00;100935.63;4989953;28;20038;-82
2022/12/28 06:00:03;;;;;;;15.90;5.95;;;;;;;7.92;100.00;100941.34;5002879;28;20030;-83
2022/12/28 06:02:28;;;;;;;8.25;4.30;;;;;;;7.88;100.00;100923.41;4994282;28;20478;-82
2022/12/28 06:04:54;;;;;;;13.70;4.57;;;;;;;7.89;100.00;100930.63;4990125;28;20129;-85
2022/12/28 06:07:19;;;;;;;19.63;5.35;;;;;;;7.77;100.00;100918.66;4990622;28;20117;-84
2022/12/28 06:09:46;;;;;;;10.18;5.70;;;;;;;7.91;100.00;100929.53;4973737;28;20094;-84
2022/12/28 06:12:11;;;;;;;15.43;6.05;;;;;;;7.90;100.00;100924.19;4981908;28;20195;-84
2022/12/28 06:14:41;;;;;;;16.92;6.45;;;;;;;7.91;100.00;100912.31;4969799;28;20035;-84
2022/12/28 06:17:06;;;;;;;16.48;6.25;;;;;;;7.84;100.00;100910.97;4988932;28;20030;-83
2022/12/28 06:19:32;;;;;;;15.38;6.82;;;;;;;7.93;100.00;100921.25;4973598;28;20042;-84
2022/12/28 06:21:57;;;;;;;10.40;5.28;;;;;;;7.93;100.00;100920.38;4979701;28;20030;-84
2022/12/28 06:24:23;;;;;;;17.25;7.10;;;;;;;7.80;100.00;100891.22;4972006;28;20434;-84
2022/12/28 06:26:48;;;;;;;18.05;7.30;;;;;;;7.97;100.00;100908.28;4985147;28;20104;-84
2022/12/28 06:29:14;;;;;;;16.08;6.10;;;;;;;7.99;100.00;100915.38;4988257;28;20072;-83
2022/12/28 06:31:45;;;;;;;15.57;4.68;;;;;;;7.93;100.00;100901.31;5005230;28;20046;-84
2022/12/28 06:34:11;;;;;;;12.20;6.05;;;;;;;7.93;100.00;100890.41;5006459;28;20034;-83
2022/12/28 06:36:39;;;;;;;16.48;5.88;;;;;;;7.90;100.00;100886.00;5005696;28;20070;-83
2022/12/28 06:39:07;;;;;;;12.52;6.68;;;;;;;7.96;100.00;100892.91;5004971;28;20031;-82
2022/12/28 06:41:32;;;;;;;10.45;5.15;;;;;;;8.05;100.00;100898.63;4994602;28;20541;-84
2022/12/28 06:43:59;;;;;;;14.38;6.82;;;;;;;8.02;100.00;100884.34;4978472;28;20057;-82
2022/12/28 06:46:27;;;;;;;14.05;5.25;;;;;;;8.05;100.00;100890.44;5007717;28;20053;-83
2022/12/28 06:48:53;;;;;;;19.77;6.28;;;;;;;8.04;100.00;100885.09;4987891;28;20082;-82
2022/12/28 06:51:25;;;;;;;13.80;6.13;;;;;;;7.96;100.00;100885.59;4987962;28;20599;-83
2022/12/28 06:53:52;;;;;;;18.60;6.82;;;;;;;8.12;100.00;100892.72;5004023;28;20014;-83
2022/12/28 06:56:24;;;;;;;21.50;8.05;;;;;;;8.06;100.00;100878.53;5005025;28;20030;-83
2022/12/28 06:58:51;;;;;;;15.32;5.65;;;;;;;8.03;100.00;100886.06;4988314;28;20046;-82
2022/12/28 07:01:22;;;;;;;18.48;6.00;;;;;;;8.11;100.00;100883.69;4987062;28;20030;-82
2022/12/28 07:03:49;;;;;;;10.82;5.50;;;;;;;8.12;100.00;100882.72;5000783;28;20041;-79
2022/12/28 07:06:17;;;;;;;15.15;5.30;;;;;;;8.13;100.00;100883.56;5005070;28;20039;-83
2022/12/28 07:08:43;;;;;;;14.50;5.50;;;;;;;8.09;100.00;100881.06;4988952;28;20045;-83
2022/12/28 07:11:11;;;;;;;9.95;5.00;;;;;;;8.10;100.00;100877.38;4999640;28;20035;-83
2022/12/28 07:13:37;;;;;;;14.70;5.43;;;;;;;8.05;100.00;100874.09;5004875;28;20038;-84
2022/12/28 07:16:05;;;;;;;17.58;4.93;;;;;;;8.08;100.00;100876.59;5001058;28;20044;-82
2022/12/28 07:18:32;;;;;;;17.70;5.43;;;;;;;8.13;100.00;100879.00;4971308;28;20474;-82
2022/12/28 07:21:10;;;;;;;13.48;4.78;;;;;;;8.05;100.00;100867.72;4977132;28;20548;-81
2022/12/28 07:23:36;;;;;;;10.27;4.55;;;;;;;8.05;100.00;100871.34;4997776;28;20042;-82
2022/12/28 07:26:09;;;;;;;10.45;4.85;;;;;;;8.08;100.00;100870.25;5001214;28;20041;-80
2022/12/28 07:28:43;;;;;;;9.18;4.10;;;;;;;8.09;100.00;100870.16;4983586;28;20042;-82
2022/12/28 07:31:15;;;;;;;9.55;4.72;;;;;;;8.02;100.00;100863.38;4994548;28;20038;-82
2022/12/28 07:33:42;;;;;;;8.10;4.65;;;;;;;8.09;100.00;100870.16;5001115;28;20026;-81
2022/12/28 07:36:14;;;;;;;9.40;5.03;;;;;;;8.11;100.00;100867.31;4992492;28;20037;-82
2022/12/28 07:38:40;;;;;;;15.63;5.38;;;;;;;8.09;100.00;100872.00;4967566;28;20039;-81
2022/12/28 07:41:09;;;;;;;10.82;4.03;;;;;;;8.06;100.00;100856.72;4982671;28;20112;-81
2022/12/28 07:43:36;;;;;;;16.52;4.40;;;;;;;8.09;100.00;100861.97;4997927;28;20114;-82
2022/12/28 07:46:04;;;;;;;7.30;3.67;;;;;;;8.16;100.00;100856.97;5002267;28;20054;-81
2022/12/28 07:48:31;;;;;;;14.77;4.20;;;;;;;8.25;100.00;100872.69;4969326;28;20061;-82
2022/12/28 07:50:56;;;;;;;19.67;5.57;;;;;;;8.20;100.00;100865.81;5000904;28;20038;-81
2022/12/28 07:53:22;;;;;;;7.20;3.45;;;;;;;8.23;100.00;100874.69;4955980;28;20038;-81
2022/12/28 07:55:58;;;;;;;17.23;4.97;;;;;;;8.31;100.00;100878.72;5002017;28;20077;-82
2022/12/28 07:58:24;;;;;;;10.15;5.68;;;;;;;8.37;100.00;100881.03;5012093;28;20034;-81
2022/12/28 08:00:49;;;;;;;15.43;5.13;;;;;;;8.32;100.00;100875.00;4968168;28;20477;-82
2022/12/28 08:03:16;;;;;;;9.65;3.72;;;;;;;8.32;100.00;100875.00;5020709;28;20041;-81
2022/12/28 08:05:41;;;;;;;9.32;3.90;;;;;;;8.26;100.00;100871.72;4981427;28;20554;-81
2022/12/28 08:08:07;;;;;;;9.60;4.47;;;;;;;8.31;100.00;100868.66;4986060;28;20050;-82
2022/12/28 08:10:32;;;;;;;10.82;5.65;;;;;;;8.37;100.00;100879.16;4988584;28;20034;-82
2022/12/28 08:13:02;;;;;;;8.18;4.22;;;;;;;8.40;100.00;100889.00;4970603;28;20427;-81
2022/12/28 08:15:29;;;;;;;17.20;5.28;;;;;;;8.33;100.00;100865.81;4990208;28;20046;-80
2022/12/28 08:17:55;;;;;;;13.18;5.72;;;;;;;8.34;100.00;100873.91;4981865;28;20062;-81
2022/12/28 08:20:21;;;;;;;13.10;5.63;;;;;;;8.45;100.00;100876.78;4985324;28;20037;-80
2022/12/28 08:22:47;;;;;;;11.52;5.90;;;;;;;8.39;100.00;100873.59;5000223;28;20050;-81
2022/12/28 08:25:13;;;;;;;9.02;4.55;;;;;;;8.38;100.00;100861.81;5001404;28;20057;-80
2022/12/28 08:27:39;;;;;;;10.57;5.63;;;;;;;8.43;100.00;100875.19;4981982;28;20058;-84
2022/12/28 08:30:05;;;;;;;12.65;5.13;;;;;;;8.38;100.00;100867.28;5002482;28;20038;-79
2022/12/28 08:32:31;;;;;;;8.80;4.80;;;;;;;8.41;100.00;100869.78;5003403;28;20452;-80
2022/12/28 08:34:56;;;;;;;9.27;4.45;;;;;;;8.39;100.00;100852.63;4977509;28;20045;-80
2022/12/28 08:37:21;;;;;;;7.72;4.50;;;;;;;8.43;100.00;100867.00;4994492;28;20088;-82
2022/12/28 08:39:47;;;;;;;13.05;5.35;;;;;;;8.43;100.00;100869.72;5001655;28;20031;-80
2022/12/28 08:42:12;;;;;;;16.02;7.07;;;;;;;8.48;100.00;100880.28;4996373;28;20434;-82
2022/12/28 08:44:38;;;;;;;11.20;5.78;;;;;;;8.48;100.00;100863.91;4976391;28;20034;-80
2022/12/28 08:47:04;;;;;;;15.88;5.53;;;;;;;8.52;100.00;100863.59;4998995;28;20041;-79
2022/12/28 08:49:29;;;;;;;13.20;5.90;;;;;;;8.45;100.00;100856.84;4977424;28;20085;-82
2022/12/28 08:51:55;;;;;;;11.15;4.70;;;;;;;8.37;100.00;100840.97;4984541;28;20066;-81
2022/12/28 08:54:20;;;;;;;13.27;5.97;;;;;;;8.52;100.00;100869.06;5000877;28;20045;-80
2022/12/28 08:56:46;;;;;;;16.63;5.20;;;;;;;8.49;100.00;100869.25;4989739;28;20042;-85
2022/12/28 08:59:17;;;;;;;17.50;5.57;;;;;;;8.46;100.00;100854.00;4975406;28;20026;-81
2022/12/28 09:01:44;;;;;;;10.43;4.38;;;;;;;8.55;100.00;100857.91;4996820;28;20135;-81
2022/12/28 09:04:20;;;;;;;12.32;4.28;;;;;;;8.52;100.00;100857.28;4995587;28;20106;-84
2022/12/28 09:06:48;;;;;;;13.43;4.18;;;;;;;8.49;100.00;100861.06;5002658;28;20041;-80
2022/12/28 09:09:18;;;;;;;13.52;5.10;;;;;;;8.37;100.00;100846.41;4987454;28;20560;-80
2022/12/28 09:11:44;;;;;;;14.02;5.60;;;;;;;8.45;100.00;100854.97;4986358;28;20018;-80
2022/12/28 09:14:11;;;;;;;13.88;5.13;;;;;;;8.49;100.00;100861.06;4987019;28;20030;-82
2022/12/28 09:16:38;;;;;;;11.35;5.40;;;;;;;8.52;100.00;100884.56;4987157;28;20048;-82
2022/12/28 09:19:06;;;;;;;9.65;4.47;;;;;;;8.57;100.00;100869.59;4970255;28;20029;-81
2022/12/28 09:21:36;;;;;;;15.38;5.68;;;;;;;8.50;100.00;100867.44;5003778;28;20512;-80
2022/12/28 09:24:04;;;;;;;13.73;5.55;;;;;;;8.60;100.00;100865.78;5001932;28;20034;-82
2022/12/28 09:26:36;;;;;;;9.07;5.05;;;;;;;8.64;100.00;100873.66;5003552;28;20457;-81
2022/12/28 09:29:03;;;;;;;17.90;5.35;;;;;;;8.64;100.00;100867.31;4986694;28;20066;-79
2022/12/28 09:31:30;;;;;;;12.13;5.18;;;;;;;8.68;100.00;100879.78;4985705;28;20038;-81
2022/12/28 09:34:02;;;;;;;11.07;4.43;;;;;;;8.63;100.00;100881.94;4999225;28;20050;-80
2022/12/28 09:36:32;;;;;;;9.15;4.60;;;;;;;8.57;100.00;100866.88;4990902;28;20039;-81
2022/12/28 09:39:01;;;;;;;19.90;5.60;;;;;;;8.66;100.00;100873.56;4982433;28;20501;-82
2022/12/28 09:41:31;;;;;;;10.02;4.95;;;;;;;8.67;100.00;100880.75;5014972;28;20076;-81
2022/12/28 09:44:11;;;;;;;12.00;5.10;;;;;;;8.68;100.00;100870.72;5003679;28;20038;-81
2022/12/28 09:46:41;;;;;;;15.07;6.15;;;;;;;8.64;100.00;100879.13;5002477;28;20034;-81
2022/12/28 09:49:16;;;;;;;12.13;5.38;;;;;;;8.69;100.00;100875.16;5002770;28;20073;-81
2022/12/28 09:51:57;;;;;;;13.35;5.68;;;;;;;8.71;100.00;100871.38;4988069;28;20042;-81
2022/12/28 09:54:23;;;;;;;13.45;5.45;;;;;;;8.70;100.00;100871.47;4983898;28;20038;-81
2022/12/28 09:56:49;;;;;;;17.55;6.43;;;;;;;8.72;100.00;100867.63;5004321;28;20527;-81
2022/12/28 09:59:29;;;;;;;17.17;6.47;;;;;;;8.86;100.00;100861.19;4969421;28;20027;-81
2022/12/28 10:02:01;;;;;;;17.55;6.00;;;;;;;8.80;100.00;100862.50;5002364;28;20022;-80
2022/12/28 10:04:26;;;;;;;11.30;5.85;;;;;;;8.78;100.00;100864.47;5004242;28;20022;-80
2022/12/28 10:06:52;;;;;;;9.77;5.25;;;;;;;8.79;100.00;100854.44;4987438;28;20089;-80
2022/12/28 10:09:32;;;;;;;9.88;5.43;;;;;;;8.85;100.00;100853.97;4984102;28;20053;-81
2022/12/28 10:12:00;;;;;;;11.00;5.38;;;;;;;8.80;100.00;100867.97;4995332;28;20044;-82
2022/12/28 10:14:33;;;;;;;12.52;5.68;;;;;;;8.83;100.00;100864.16;4984690;28;20040;-81
2022/12/28 10:16:59;;;;;;;14.38;6.43;;;;;;;8.81;100.00;100852.47;4999858;28;20049;-81
2022/12/28 10:19:26;;;;;;;20.27;6.10;;;;;;;8.85;100.00;100847.66;4969708;28;20027;-82
2022/12/28 10:22:02;;;;;;;18.58;7.07;;;;;;;8.85;100.00;100848.53;5003474;28;20030;-82
2022/12/28 10:24:29;;;;;;;12.65;6.15;;;;;;;8.82;100.00;100840.53;5003221;28;20044;-83
2022/12/28 10:26:57;;;;;;;14.07;6.03;;;;;;;8.87;100.00;100841.13;4982708;28;20310;-82
2022/12/28 10:29:24;;;;;;;8.88;4.75;;;;;;;8.81;100.00;100833.38;4997071;28;20060;-82
2022/12/28 10:32:00;;;;;;;14.68;5.32;;;;;;;8.87;100.00;100837.50;4966928;28;20034;-83
2022/12/28 10:34:25;;;;;;;13.63;5.57;;;;;;;8.94;100.00;100842.41;5010015;28;20044;-83
2022/12/28 10:36:53;;;;;;;8.05;5.28;;;;;;;8.87;100.00;100841.13;5001622;28;20034;-84
2022/12/28 10:39:27;;;;;;;14.00;4.40;;;;;;;8.83;100.00;100825.94;5000047;28;20386;-82
2022/12/28 10:41:54;;;;;;;12.70;4.97;;;;;;;8.83;100.00;100832.25;5000990;28;20391;-82
2022/12/28 10:44:32;;;;;;;8.82;5.18;;;;;;;8.89;100.00;100841.00;5000094;28;20038;-83
2022/12/28 10:47:04;;;;;;;22.48;4.95;;;;;;;8.90;100.00;100829.09;4984927;28;20466;-82
2022/12/28 10:49:35;;;;;;;11.20;5.80;;;;;;;8.93;100.00;100829.72;4999801;28;20050;-82
2022/12/28 10:52:13;;;;;;;14.10;5.55;;;;;;;8.95;100.00;100833.25;4999096;28;20062;-82
2022/12/28 10:54:38;;;;;;;11.52;4.35;;;;;;;8.89;100.00;100825.50;4984459;28;20045;-83
2022/12/28 10:57:04;;;;;;;18.42;5.80;;;;;;;8.91;100.00;100823.50;4968486;28;20026;-82
2022/12/28 10:59:31;;;;;;;14.40;5.95;;;;;;;9.02;100.00;100830.94;4966147;28;20125;-82
2022/12/28 11:02:18;;;;;;;15.70;5.90;;;;;;;9.07;100.00;100825.09;4978422;28;20030;-82
2022/12/28 11:04:59;;;;;;;11.60;4.35;;;;;;;8.93;100.00;100810.63;4999207;28;20023;-81
2022/12/28 11:07:28;;;;;;;13.48;5.93;;;;;;;9.01;100.00;100813.66;5000699;28;20090;-81
2022/12/28 11:09:53;;;;;;;11.75;5.00;;;;;;;8.97;100.00;100811.28;4997063;28;20660;-80
2022/12/28 11:12:24;;;;;;;23.65;5.45;;;;;;;9.06;100.00;100798.81;4984570;28;20046;-81
2022/12/28 11:14:55;;;;;;;8.07;3.83;;;;;;;9.06;100.00;100807.00;4982521;28;20093;-81
2022/12/28 11:17:22;;;;;;;10.43;5.75;;;;;;;9.12;100.00;100795.63;4997953;28;20043;-79
2022/12/28 11:19:52;;;;;;;11.98;5.38;;;;;;;9.11;100.00;100791.13;4992945;28;20116;-82
2022/12/28 11:22:24;;;;;;;14.88;5.43;;;;;;;9.05;100.00;100792.47;4997450;28;20038;-81
2022/12/28 11:24:49;;;;;;;12.75;5.45;;;;;;;8.94;100.00;100767.81;5001343;28;20160;-81
2022/12/28 11:27:21;;;;;;;15.38;5.20;;;;;;;9.06;100.00;100785.16;5000507;28;20478;-81
2022/12/28 11:29:48;;;;;;;21.13;5.70;;;;;;;9.04;100.00;100771.59;4997020;28;20510;-81
2022/12/28 11:32:25;;;;;;;15.68;5.28;;;;;;;9.06;100.00;100771.50;4997933;28;20486;-82
2022/12/28 11:34:54;;;;;;;17.40;6.15;;;;;;;9.11;100.00;100777.47;4999392;28;20038;-82
2022/12/28 11:37:23;;;;;;;10.88;4.93;;;;;;;9.11;100.00;100780.22;4967957;28;20049;-83
2022/12/28 11:39:51;;;;;;;7.15;3.60;;;;;;;9.11;100.00;100761.94;4972541;28;20026;-82
2022/12/28 11:42:51;;;;;;;10.10;4.43;;;;;;;9.24;100.00;100780.19;5001160;28;20030;-82
2022/12/28 11:45:50;;;;;;;11.10;5.38;;;;;;;9.30;100.00;100766.06;4996912;28;20441;-81
2022/12/28 11:48:56;;;;;;;11.52;5.03;;;;;;;9.31;100.00;100763.22;5001562;28;20030;-81
2022/12/28 11:51:33;;;;;;;14.65;4.28;;;;;;;9.35;100.00;100759.25;4951121;28;20046;-83
2022/12/28 11:54:44;;;;;;;10.30;4.28;;;;;;;9.46;100.00;100763.91;4998460;28;20435;-82